createdAt,value
2023-04-30T00:01:47.373Z,13.03
2023-04-30T00:04:15.303Z,9.07
2023-04-30T00:06:43.131Z,11.40
2023-04-30T00:09:11.123Z,9.83
2023-04-30T00:11:38.836Z,9.83
2023-04-30T00:14:06.671Z,12.27
2023-04-30T00:16:35.844Z,10.73
2023-04-30T00:19:03.598Z,9.90
2023-04-30T00:21:31.400Z,10.33
2023-04-30T00:24:00.417Z,13.23
2023-04-30T00:26:28.164Z,11.30
2023-04-30T00:28:57.148Z,11.37
2023-04-30T00:31:24.926Z,10.30
2023-04-30T00:33:54.027Z,10.67
2023-04-30T00:36:21.794Z,13.43
2023-04-30T00:38:49.484Z,10.93
2023-04-30T00:41:17.576Z,13.43
2023-04-30T00:43:46.923Z,11.37
2023-04-30T00:46:14.714Z,13.80
2023-04-30T00:48:42.548Z,8.10
2023-04-30T00:51:12.033Z,10.97
2023-04-30T00:53:41.085Z,10.47
2023-04-30T00:56:11.083Z,10.53
2023-04-30T00:58:38.981Z,10.17
2023-04-30T01:01:07.959Z,10.30
2023-04-30T01:03:36.931Z,11.30
2023-04-30T01:06:05.065Z,10.73
2023-04-30T01:08:35.083Z,10.13
2023-04-30T01:11:13.695Z,13.17
2023-04-30T01:13:46.767Z,13.90
2023-04-30T01:16:26.648Z,14.23
2023-04-30T01:19:00.207Z,10.70
2023-04-30T01:21:30.762Z,11.43
2023-04-30T01:24:36.442Z,10.70
2023-04-30T01:27:14.497Z,13.53
2023-04-30T01:29:43.816Z,11.67
2023-04-30T01:32:12.159Z,10.07
2023-04-30T01:34:39.926Z,13.93
2023-04-30T01:37:17.219Z,9.30
2023-04-30T01:39:58.431Z,10.60
2023-04-30T01:42:38.108Z,11.80
2023-04-30T01:45:24.100Z,12.30
2023-04-30T01:47:57.658Z,12.10
2023-04-30T01:50:31.010Z,12.60
2023-04-30T01:53:01.311Z,10.90
2023-04-30T01:55:35.972Z,9.17
2023-04-30T01:58:08.110Z,12.33
2023-04-30T02:00:37.244Z,11.70
2023-04-30T02:03:05.354Z,11.93
2023-04-30T02:05:33.265Z,12.03
2023-04-30T02:08:01.273Z,11.77
2023-04-30T02:10:30.324Z,11.53
2023-04-30T02:12:58.216Z,11.90
2023-04-30T02:15:26.083Z,12.03
2023-04-30T02:17:55.292Z,12.53
2023-04-30T02:20:23.210Z,13.70
2023-04-30T02:22:51.114Z,13.37
2023-04-30T02:25:18.969Z,12.20
2023-04-30T02:27:46.647Z,12.57
2023-04-30T02:30:14.462Z,12.17
2023-04-30T02:32:42.196Z,12.60
2023-04-30T02:35:11.425Z,13.53
2023-04-30T02:37:39.238Z,13.13
2023-04-30T02:40:08.677Z,16.77
2023-04-30T02:42:36.450Z,11.33
2023-04-30T02:45:04.362Z,14.57
2023-04-30T02:47:32.172Z,12.77
2023-04-30T02:49:59.958Z,11.27
2023-04-30T02:52:29.069Z,13.40
2023-04-30T02:54:56.911Z,12.93
2023-04-30T02:57:24.793Z,13.60
2023-04-30T02:59:52.959Z,14.57
2023-04-30T03:02:23.652Z,11.67
2023-04-30T03:04:51.781Z,14.60
2023-04-30T03:07:19.541Z,14.93
2023-04-30T03:09:48.627Z,17.23
2023-04-30T03:12:16.457Z,14.47
2023-04-30T03:14:44.225Z,13.93
2023-04-30T03:17:11.999Z,13.60
2023-04-30T03:19:39.791Z,13.63
2023-04-30T03:22:07.589Z,11.63
2023-04-30T03:24:35.322Z,12.90
2023-04-30T03:27:04.465Z,15.40
2023-04-30T03:29:32.113Z,11.30
2023-04-30T03:31:59.949Z,12.20
2023-04-30T03:34:27.751Z,11.17
2023-04-30T03:36:55.609Z,14.20
2023-04-30T03:39:23.326Z,12.63
2023-04-30T03:41:51.042Z,14.30
2023-04-30T03:44:20.163Z,13.27
2023-04-30T03:46:47.910Z,10.73
2023-04-30T03:49:15.903Z,11.13
2023-04-30T03:51:43.993Z,14.67
2023-04-30T03:54:11.663Z,12.17
2023-04-30T03:56:39.540Z,13.37
2023-04-30T03:59:07.417Z,14.50
2023-04-30T04:01:36.574Z,12.53
2023-04-30T04:04:04.450Z,12.73
2023-04-30T04:06:32.779Z,14.17
2023-04-30T04:09:00.602Z,13.43
2023-04-30T04:11:28.386Z,13.67
2023-04-30T04:13:56.144Z,10.97
2023-04-30T04:16:24.032Z,12.40
2023-04-30T04:18:53.422Z,12.57
2023-04-30T04:21:21.225Z,10.93
2023-04-30T04:23:48.968Z,9.77
2023-04-30T04:26:19.745Z,9.67
2023-04-30T04:28:47.888Z,10.67
2023-04-30T04:31:15.939Z,9.30
2023-04-30T04:33:43.705Z,7.43
2023-04-30T04:36:12.824Z,10.03
2023-04-30T04:38:41.087Z,10.37
2023-04-30T04:41:08.874Z,11.40
2023-04-30T04:43:37.065Z,6.80
2023-04-30T04:46:05.240Z,8.80
2023-04-30T04:48:33.035Z,11.40
2023-04-30T04:51:00.775Z,9.20
2023-04-30T04:53:29.924Z,6.80
2023-04-30T04:55:57.818Z,9.33
2023-04-30T04:58:25.574Z,7.03
2023-04-30T05:00:53.499Z,7.53
2023-04-30T05:03:21.902Z,7.40
2023-04-30T05:05:49.785Z,7.33
2023-04-30T05:08:17.516Z,6.50
2023-04-30T05:10:46.701Z,8.70
2023-04-30T05:13:14.558Z,6.33
2023-04-30T05:15:42.303Z,8.77
2023-04-30T05:18:10.082Z,5.93
2023-04-30T05:20:37.892Z,6.67
2023-04-30T05:23:05.590Z,8.37
2023-04-30T05:25:33.335Z,8.40
2023-04-30T05:28:02.512Z,8.27
2023-04-30T05:30:30.547Z,6.70
2023-04-30T05:32:58.840Z,5.77
2023-04-30T05:35:26.684Z,6.53
2023-04-30T05:37:54.385Z,5.73
2023-04-30T05:40:22.169Z,7.47
2023-04-30T05:42:49.888Z,6.90
2023-04-30T05:45:19.017Z,6.30
2023-04-30T05:47:46.831Z,5.63
2023-04-30T05:50:14.631Z,6.53
2023-04-30T05:52:42.394Z,6.60
2023-04-30T05:55:11.617Z,6.80
2023-04-30T05:57:39.445Z,6.13
2023-04-30T06:00:08.583Z,6.03
2023-04-30T06:02:37.777Z,6.10
2023-04-30T06:05:06.216Z,5.60
2023-04-30T06:07:33.955Z,6.93
2023-04-30T06:10:01.663Z,6.37
2023-04-30T06:12:29.481Z,8.73
2023-04-30T06:14:57.562Z,8.93
2023-04-30T06:17:25.408Z,6.00
2023-04-30T06:19:54.941Z,6.87
2023-04-30T06:22:22.754Z,6.37
2023-04-30T06:24:50.679Z,7.40
2023-04-30T06:27:18.385Z,6.50
2023-04-30T06:29:46.495Z,7.17
2023-04-30T06:32:14.166Z,8.23
2023-04-30T06:34:41.943Z,7.13
2023-04-30T06:37:11.005Z,7.27
2023-04-30T06:39:38.703Z,6.10
2023-04-30T06:42:06.503Z,6.60
2023-04-30T06:44:34.251Z,6.60
2023-04-30T06:47:02.615Z,8.50
2023-04-30T06:49:30.385Z,6.40
2023-04-30T06:51:58.563Z,7.03
2023-04-30T06:54:27.817Z,7.57
2023-04-30T06:56:55.770Z,6.00
2023-04-30T06:59:23.477Z,6.90
2023-04-30T07:01:51.438Z,6.50
2023-04-30T07:04:20.093Z,8.60
2023-04-30T07:06:47.883Z,7.57
2023-04-30T07:09:16.642Z,8.10
2023-04-30T07:11:46.292Z,5.77
2023-04-30T07:14:14.099Z,5.43
2023-04-30T07:16:41.842Z,7.57
2023-04-30T07:19:09.613Z,6.67
2023-04-30T07:21:37.490Z,8.13
2023-04-30T07:24:05.867Z,5.77
2023-04-30T07:26:33.914Z,6.40
2023-04-30T07:29:08.399Z,5.90
2023-04-30T07:31:36.229Z,6.97
2023-04-30T07:34:04.012Z,6.93
2023-04-30T07:36:31.784Z,7.57
2023-04-30T07:38:59.594Z,6.93
2023-04-30T07:41:27.379Z,7.37
2023-04-30T07:43:55.144Z,7.27
2023-04-30T07:46:25.032Z,6.13
2023-04-30T07:48:52.944Z,5.60
2023-04-30T07:51:20.704Z,6.77
2023-04-30T07:53:48.447Z,6.10
2023-04-30T07:56:16.232Z,5.83
2023-04-30T07:58:43.945Z,5.97
2023-04-30T08:01:11.804Z,4.73
2023-04-30T08:03:41.156Z,7.07
2023-04-30T08:06:09.120Z,8.40
2023-04-30T08:08:36.956Z,5.33
2023-04-30T08:11:04.806Z,7.33
2023-04-30T08:13:32.665Z,7.00
2023-04-30T08:16:00.470Z,7.00
2023-04-30T08:18:28.347Z,5.73
2023-04-30T08:20:57.524Z,5.97
2023-04-30T08:23:25.329Z,6.43
2023-04-30T08:25:53.174Z,11.23
2023-04-30T08:28:21.463Z,7.80
2023-04-30T08:30:49.231Z,5.83
2023-04-30T08:33:16.946Z,5.17
2023-04-30T08:35:45.593Z,4.70
2023-04-30T08:38:14.711Z,6.73
2023-04-30T08:43:15.553Z,7.50
2023-04-30T08:45:44.335Z,8.53
2023-04-30T08:48:14.101Z,8.80
2023-04-30T08:50:41.907Z,8.13
2023-04-30T08:53:11.933Z,9.27
2023-04-30T08:55:41.764Z,6.07
2023-04-30T08:58:10.364Z,4.60
2023-04-30T09:00:39.274Z,5.47
2023-04-30T09:03:08.054Z,2.83
2023-04-30T09:05:35.951Z,3.60
2023-04-30T09:08:04.540Z,4.33
2023-04-30T09:10:34.874Z,3.30
2023-04-30T09:13:06.388Z,2.67
2023-04-30T09:15:35.890Z,2.07
2023-04-30T09:18:11.616Z,2.80
2023-04-30T09:20:54.478Z,2.80
2023-04-30T09:23:22.486Z,2.83
2023-04-30T09:25:50.272Z,3.23
2023-04-30T09:28:23.724Z,2.43
2023-04-30T09:30:52.243Z,3.37
2023-04-30T09:33:20.427Z,3.13
2023-04-30T09:35:48.959Z,2.30
2023-04-30T09:38:31.034Z,3.30
2023-04-30T09:41:00.048Z,4.37
2023-04-30T09:43:29.613Z,3.33
2023-04-30T09:46:00.099Z,3.13
2023-04-30T09:48:29.179Z,2.73
2023-04-30T09:50:57.687Z,1.47
2023-04-30T09:53:25.497Z,2.90
2023-04-30T09:55:54.537Z,3.10
2023-04-30T09:58:25.044Z,2.70
2023-04-30T10:00:57.036Z,3.40
2023-04-30T10:03:25.294Z,3.20
2023-04-30T10:05:54.064Z,2.93
2023-04-30T10:08:28.353Z,14.20
2023-04-30T10:11:00.274Z,3.47
2023-04-30T10:33:07.752Z,3.90
2023-04-30T10:35:46.109Z,3.10
2023-04-30T10:38:21.765Z,3.50
2023-04-30T10:40:49.660Z,2.63
2023-04-30T10:43:19.745Z,3.20
2023-04-30T10:45:47.650Z,2.83
2023-04-30T10:48:26.459Z,1.67
2023-04-30T10:51:02.143Z,1.93
2023-04-30T10:53:34.883Z,3.80
2023-04-30T10:56:06.744Z,3.83
2023-04-30T10:58:35.951Z,3.17
2023-04-30T11:01:06.063Z,4.13
2023-04-30T11:03:37.190Z,2.70
2023-04-30T11:06:13.511Z,2.40
2023-04-30T11:08:45.556Z,3.13
2023-04-30T11:11:18.554Z,2.73
2023-04-30T11:13:46.867Z,2.30
2023-04-30T11:16:16.798Z,2.53
2023-04-30T11:18:47.100Z,1.77
2023-04-30T11:21:15.120Z,3.10
2023-04-30T11:23:44.340Z,2.43
2023-04-30T11:26:12.352Z,4.43
2023-04-30T11:28:40.159Z,3.57
2023-04-30T11:31:08.050Z,4.70
2023-04-30T11:33:36.369Z,3.53
2023-04-30T11:36:06.287Z,3.30
2023-04-30T11:38:36.996Z,3.23
2023-04-30T11:41:06.247Z,2.20
2023-04-30T11:43:35.558Z,2.40
2023-04-30T11:46:07.488Z,2.03
2023-04-30T11:48:36.649Z,2.30
2023-04-30T11:51:07.487Z,2.73
2023-04-30T11:53:35.450Z,2.27
2023-04-30T11:56:07.173Z,2.67
2023-04-30T11:58:37.857Z,1.87
2023-04-30T12:01:06.403Z,2.37
2023-04-30T12:03:34.226Z,3.13
2023-04-30T12:06:02.651Z,2.60
2023-04-30T12:08:31.818Z,2.63
2023-04-30T12:10:59.737Z,2.70
2023-04-30T12:13:27.495Z,3.80
2023-04-30T12:16:00.294Z,8.23
2023-04-30T12:18:28.167Z,3.07
2023-04-30T12:20:56.660Z,2.77
2023-04-30T12:23:24.528Z,2.93
2023-04-30T12:25:53.722Z,3.37
2023-04-30T12:28:24.375Z,5.53
2023-04-30T12:30:54.762Z,3.07
2023-04-30T12:33:22.565Z,2.17
2023-04-30T12:35:54.039Z,2.57
2023-04-30T12:38:23.395Z,1.90
2023-04-30T12:40:51.331Z,2.20
2023-04-30T12:43:20.458Z,2.97
2023-04-30T12:45:51.639Z,2.20
2023-04-30T12:48:20.652Z,2.77
2023-04-30T12:50:56.981Z,2.77
2023-04-30T12:53:25.019Z,2.00
2023-04-30T12:56:09.329Z,2.33
2023-04-30T12:58:39.011Z,4.17
2023-04-30T13:01:11.518Z,2.67
2023-04-30T13:03:39.468Z,3.00
2023-04-30T13:06:07.508Z,2.83
2023-04-30T13:08:45.786Z,3.03
2023-04-30T13:11:23.025Z,3.03
2023-04-30T13:13:52.158Z,4.97
2023-04-30T13:16:20.554Z,3.10
2023-04-30T13:18:48.513Z,4.30
2023-04-30T13:21:16.317Z,3.57
2023-04-30T13:23:53.501Z,3.37
2023-04-30T13:26:23.180Z,3.63
2023-04-30T13:28:52.731Z,8.87
2023-04-30T13:31:20.759Z,3.40
2023-04-30T13:33:48.725Z,4.10
2023-04-30T13:36:16.766Z,3.03
2023-04-30T13:38:44.568Z,3.83
2023-04-30T13:41:12.438Z,4.77
2023-04-30T13:43:42.693Z,4.83
2023-04-30T13:46:12.477Z,4.13
2023-04-30T13:48:40.297Z,3.63
2023-04-30T13:51:08.385Z,3.20
2023-04-30T13:53:37.359Z,3.40
2023-04-30T13:56:05.934Z,2.53
2023-04-30T13:58:33.841Z,4.47
2023-04-30T14:01:01.870Z,3.20
2023-04-30T14:03:31.212Z,2.67
2023-04-30T14:05:59.104Z,2.93
2023-04-30T14:08:26.998Z,1.83
2023-04-30T14:10:54.877Z,1.50
2023-04-30T14:13:22.664Z,2.30
2023-04-30T14:15:50.514Z,2.10
2023-04-30T14:18:18.651Z,2.63
2023-04-30T14:20:47.870Z,1.07
2023-04-30T14:23:15.850Z,2.23
2023-04-30T14:25:44.537Z,2.23
2023-04-30T14:28:13.043Z,1.70
2023-04-30T14:30:40.816Z,1.40
2023-04-30T14:33:11.082Z,2.20
2023-04-30T14:35:39.645Z,1.33
2023-04-30T14:38:08.935Z,1.30
2023-04-30T14:40:36.724Z,1.33
2023-04-30T14:43:04.498Z,1.70
2023-04-30T14:45:34.353Z,1.27
2023-04-30T14:48:05.173Z,1.00
2023-04-30T14:50:33.526Z,1.20
2023-04-30T14:53:01.372Z,1.40
2023-04-30T14:55:30.757Z,1.17
2023-04-30T14:58:03.363Z,1.23
2023-04-30T15:00:32.082Z,1.75
2023-04-30T15:03:00.039Z,1.07
2023-04-30T15:05:27.977Z,1.60
2023-04-30T15:07:55.910Z,4.33
2023-04-30T15:10:23.898Z,1.58
2023-04-30T15:12:53.832Z,2.92
2023-04-30T15:15:27.848Z,2.27
2023-04-30T15:17:56.239Z,2.22
2023-04-30T15:20:24.205Z,2.08
2023-04-30T15:22:54.797Z,3.10
2023-04-30T15:25:24.236Z,1.10
2023-04-30T15:27:53.578Z,1.30
2023-04-30T15:30:22.627Z,2.00
2023-04-30T15:32:50.682Z,1.00
2023-04-30T15:35:18.829Z,1.55
2023-04-30T15:37:46.644Z,0.90
2023-04-30T15:40:15.607Z,2.40
2023-04-30T15:42:43.655Z,0.95
2023-04-30T15:45:13.169Z,0.80
2023-04-30T15:47:41.812Z,1.25
2023-04-30T15:50:10.470Z,1.00
2023-04-30T15:52:40.037Z,1.43
2023-04-30T15:55:09.207Z,1.42
2023-04-30T15:57:37.031Z,1.15
2023-04-30T16:00:05.372Z,0.98
2023-04-30T16:02:35.871Z,2.85
2023-04-30T16:05:04.323Z,0.82
2023-04-30T16:07:32.645Z,1.42
2023-04-30T16:10:01.742Z,0.70
2023-04-30T16:12:29.524Z,1.33
2023-04-30T16:14:57.544Z,0.80
2023-04-30T16:17:25.441Z,1.20
2023-04-30T16:19:55.120Z,1.10
2023-04-30T16:22:23.146Z,1.58
2023-04-30T16:24:50.823Z,0.75
2023-04-30T16:27:18.688Z,1.23
2023-04-30T16:29:46.582Z,3.50
2023-04-30T16:32:14.483Z,1.33
2023-04-30T16:34:42.516Z,1.10
2023-04-30T16:37:12.102Z,0.98
2023-04-30T16:39:40.378Z,1.52
2023-04-30T16:42:08.597Z,0.77
2023-04-30T16:44:36.930Z,2.08
2023-04-30T16:47:04.686Z,2.22
2023-04-30T16:49:32.481Z,1.73
2023-04-30T16:52:00.334Z,1.70
2023-04-30T16:54:29.611Z,0.90
2023-04-30T16:56:57.485Z,2.85
2023-04-30T16:59:26.378Z,1.45
2023-04-30T17:01:56.497Z,0.93
2023-04-30T17:04:24.467Z,0.68
2023-04-30T17:06:52.563Z,1.08
2023-04-30T17:09:20.792Z,0.80
2023-04-30T17:11:49.970Z,1.00
2023-04-30T17:14:17.754Z,1.50
2023-04-30T17:16:46.956Z,0.65
2023-04-30T17:19:14.872Z,1.17
2023-04-30T17:21:42.626Z,1.40
2023-04-30T17:24:11.313Z,0.85
2023-04-30T17:26:39.047Z,0.80
2023-04-30T17:29:08.148Z,0.98
2023-04-30T17:31:36.017Z,0.75
2023-04-30T17:34:03.907Z,0.68
2023-04-30T17:36:31.669Z,2.03
2023-04-30T17:39:02.609Z,0.98
2023-04-30T17:41:30.507Z,1.83
2023-04-30T17:43:58.260Z,0.60
2023-04-30T17:46:27.599Z,0.68
2023-04-30T17:48:55.460Z,2.95
2023-04-30T17:51:23.229Z,1.02
2023-04-30T17:53:51.144Z,3.63
2023-04-30T17:56:18.856Z,0.70
2023-04-30T17:58:47.610Z,1.27
2023-04-30T18:01:15.396Z,1.25
2023-04-30T18:03:44.951Z,0.95
2023-04-30T18:06:12.761Z,1.63
2023-04-30T18:08:40.608Z,1.25
2023-04-30T18:11:08.743Z,1.75
2023-04-30T18:13:37.032Z,2.28
2023-04-30T18:16:05.099Z,1.75
2023-04-30T18:18:32.900Z,1.33
2023-04-30T18:21:02.364Z,2.20
2023-04-30T18:23:30.127Z,0.68
2023-04-30T18:25:57.956Z,0.80
2023-04-30T18:28:25.743Z,2.97
2023-04-30T18:30:53.485Z,2.10
2023-04-30T18:33:21.216Z,1.05
2023-04-30T18:35:51.484Z,1.17
2023-04-30T18:38:20.685Z,2.55
2023-04-30T18:40:48.473Z,0.80
2023-04-30T18:43:16.900Z,0.98
2023-04-30T18:45:44.777Z,1.07
2023-04-30T18:48:12.643Z,1.33
2023-04-30T18:50:42.998Z,1.70
2023-04-30T18:53:11.402Z,1.40
2023-04-30T18:55:40.827Z,2.73
2023-04-30T18:58:08.939Z,1.27
2023-04-30T19:00:36.766Z,1.50
2023-04-30T19:03:04.706Z,1.20
2023-04-30T19:05:34.954Z,1.60
2023-04-30T19:08:02.944Z,1.03
2023-04-30T19:10:30.753Z,1.73
2023-04-30T19:12:59.904Z,1.13
2023-04-30T19:15:29.727Z,1.53
2023-04-30T19:17:58.725Z,0.87
2023-04-30T19:20:26.894Z,0.97
2023-04-30T19:22:54.827Z,0.90
2023-04-30T19:25:23.511Z,3.37
2023-04-30T19:27:51.517Z,1.83
2023-04-30T19:30:20.688Z,1.87
2023-04-30T19:32:48.558Z,1.97
2023-04-30T19:35:16.778Z,2.20
2023-04-30T19:37:44.634Z,1.23
2023-04-30T19:40:12.963Z,1.67
2023-04-30T19:42:41.093Z,1.73
2023-04-30T19:45:10.848Z,2.43
2023-04-30T19:47:40.117Z,1.60
2023-04-30T19:50:09.749Z,2.43
2023-04-30T19:52:37.567Z,0.77
2023-04-30T19:55:05.831Z,1.80
2023-04-30T19:57:35.042Z,1.40
2023-04-30T20:00:04.454Z,1.37
2023-04-30T20:02:32.631Z,1.07
2023-04-30T20:05:01.868Z,1.53
2023-04-30T20:07:29.792Z,3.43
2023-04-30T20:09:57.606Z,1.93
2023-04-30T20:12:25.652Z,2.60
2023-04-30T20:14:53.421Z,1.20
2023-04-30T20:17:21.220Z,3.10
2023-04-30T20:19:49.094Z,4.10
2023-04-30T20:22:18.269Z,1.60
2023-04-30T20:24:48.140Z,3.13
2023-04-30T20:27:15.978Z,9.10
2023-04-30T20:29:43.847Z,2.30
2023-04-30T20:32:11.774Z,1.57
2023-04-30T20:34:39.603Z,3.13
2023-04-30T20:37:07.320Z,4.20
2023-04-30T20:39:36.389Z,3.37
2023-04-30T20:42:04.140Z,2.90
2023-04-30T20:44:31.959Z,2.17
2023-04-30T20:46:59.928Z,2.90
2023-04-30T20:49:27.860Z,4.03
2023-04-30T20:51:55.745Z,2.37
2023-04-30T20:54:23.766Z,1.57
2023-04-30T20:56:53.102Z,3.27
2023-04-30T20:59:20.887Z,3.50
2023-04-30T21:01:48.671Z,2.77
2023-04-30T21:04:16.715Z,2.03
2023-04-30T21:06:44.609Z,2.43
2023-04-30T21:09:12.419Z,3.63
2023-04-30T21:11:40.449Z,2.10
2023-04-30T21:14:09.895Z,2.43
2023-04-30T21:16:38.001Z,2.20
2023-04-30T21:19:05.878Z,2.87
2023-04-30T21:21:33.868Z,2.77
2023-04-30T21:24:02.257Z,1.13
2023-04-30T21:26:29.987Z,1.47
2023-04-30T21:28:57.853Z,1.27
2023-04-30T21:31:27.893Z,3.43
2023-04-30T21:33:56.024Z,1.70
2023-04-30T21:36:23.774Z,1.70
2023-04-30T21:38:51.504Z,2.03
2023-04-30T21:41:19.802Z,2.33
2023-04-30T21:43:47.508Z,2.83
2023-04-30T21:46:15.310Z,2.13
2023-04-30T21:48:44.498Z,1.60
2023-04-30T21:51:12.543Z,1.63
2023-04-30T21:53:40.389Z,1.47
2023-04-30T21:56:08.545Z,1.83
2023-04-30T21:58:36.412Z,2.90
2023-04-30T22:01:05.232Z,2.53
2023-04-30T22:03:33.206Z,3.33
2023-04-30T22:06:02.624Z,3.33
2023-04-30T22:08:30.444Z,3.37
2023-04-30T22:10:59.003Z,4.13
2023-04-30T22:13:27.198Z,1.77
2023-04-30T22:15:55.455Z,3.63
2023-04-30T22:18:24.464Z,2.27
2023-04-30T22:20:53.103Z,4.77
2023-04-30T22:23:22.470Z,2.90
2023-04-30T22:25:50.569Z,2.53
2023-04-30T22:28:19.376Z,2.27
2023-04-30T22:30:47.153Z,2.53
2023-04-30T22:33:15.001Z,2.50
2023-04-30T22:35:42.856Z,2.40
2023-04-30T22:38:10.988Z,2.10
2023-04-30T22:40:40.531Z,2.17
2023-04-30T22:43:09.480Z,1.90
2023-04-30T22:45:40.302Z,2.50
2023-04-30T22:48:09.647Z,2.57
2023-04-30T22:50:37.771Z,2.73
2023-04-30T22:53:06.461Z,2.90
2023-04-30T22:55:36.002Z,3.63
2023-04-30T22:58:05.172Z,3.03
2023-04-30T23:00:33.188Z,2.33
2023-04-30T23:03:01.095Z,3.00
2023-04-30T23:05:28.868Z,2.73
2023-04-30T23:07:56.713Z,2.20
2023-04-30T23:10:24.397Z,2.60
2023-04-30T23:12:55.391Z,2.10
2023-04-30T23:15:24.554Z,1.70
2023-04-30T23:17:54.325Z,3.93
2023-04-30T23:20:22.668Z,1.77
2023-04-30T23:22:50.760Z,3.27
2023-04-30T23:25:18.525Z,2.93
2023-04-30T23:27:46.288Z,4.20
2023-04-30T23:30:14.224Z,3.83
2023-04-30T23:32:43.472Z,2.50
2023-04-30T23:35:11.233Z,4.03
2023-04-30T23:37:38.961Z,2.83
2023-04-30T23:40:09.663Z,2.07
2023-04-30T23:42:37.414Z,2.40
2023-04-30T23:45:05.932Z,3.60
2023-04-30T23:47:36.253Z,2.60
2023-04-30T23:50:06.039Z,3.53
2023-04-30T23:52:35.261Z,1.83
2023-04-30T23:55:03.497Z,2.83
2023-04-30T23:57:31.294Z,2.80
2023-04-30T23:59:59.441Z,2.20
